sensor_id;sensor_type;location;lat;lon;timestamp;P1;durP1;ratioP1;P2;durP2;ratioP2
56267;SDS011;42175;46.930;9.532;2022-10-22T00:02:24;8.75;;;4.70;;
56267;SDS011;42175;46.930;9.532;2022-10-22T00:04:52;11.32;;;4.20;;
56267;SDS011;42175;46.930;9.532;2022-10-22T00:07:20;10.93;;;3.88;;
56267;SDS011;42175;46.930;9.532;2022-10-22T00:09:46;8.35;;;3.83;;
56267;SDS011;42175;46.930;9.532;2022-10-22T00:12:13;8.02;;;4.25;;
56267;SDS011;42175;46.930;9.532;2022-10-22T00:14:39;10.40;;;4.57;;
56267;SDS011;42175;46.930;9.532;2022-10-22T00:17:05;9.80;;;3.90;;
56267;SDS011;42175;46.930;9.532;2022-10-22T00:19:31;16.10;;;4.63;;
56267;SDS011;42175;46.930;9.532;2022-10-22T00:21:57;10.80;;;4.10;;
56267;SDS011;42175;46.930;9.532;2022-10-22T00:24:23;26.63;;;4.13;;
56267;SDS011;42175;46.930;9.532;2022-10-22T00:26:49;15.57;;;4.53;;
56267;SDS011;42175;46.930;9.532;2022-10-22T00:29:15;20.13;;;5.97;;
56267;SDS011;42175;46.930;9.532;2022-10-22T00:31:45;11.10;;;4.18;;
56267;SDS011;42175;46.930;9.532;2022-10-22T00:34:17;11.45;;;5.68;;
56267;SDS011;42175;46.930;9.532;2022-10-22T00:36:45;9.65;;;4.53;;
56267;SDS011;42175;46.930;9.532;2022-10-22T00:39:11;14.13;;;4.85;;
56267;SDS011;42175;46.930;9.532;2022-10-22T00:41:40;8.10;;;4.10;;
56267;SDS011;42175;46.930;9.532;2022-10-22T00:44:57;11.55;;;4.93;;
56267;SDS011;42175;46.930;9.532;2022-10-22T00:47:11;8.30;;;4.80;;
56267;SDS011;42175;46.930;9.532;2022-10-22T00:49:39;12.50;;;5.20;;
56267;SDS011;42175;46.930;9.532;2022-10-22T00:52:05;6.30;;;4.78;;
56267;SDS011;42175;46.930;9.532;2022-10-22T00:54:32;9.52;;;5.50;;
56267;SDS011;42175;46.930;9.532;2022-10-22T00:56:59;10.23;;;6.50;;
56267;SDS011;42175;46.930;9.532;2022-10-22T00:59:25;9.98;;;5.93;;
56267;SDS011;42175;46.930;9.532;2022-10-22T01:01:52;11.52;;;5.40;;
56267;SDS011;42175;46.930;9.532;2022-10-22T01:04:18;10.27;;;5.60;;
56267;SDS011;42175;46.930;9.532;2022-10-22T01:06:45;9.48;;;5.07;;
56267;SDS011;42175;46.930;9.532;2022-10-22T01:14:40;8.48;;;6.28;;
56267;SDS011;42175;46.930;9.532;2022-10-22T01:23:02;11.93;;;4.80;;
56267;SDS011;42175;46.930;9.532;2022-10-22T01:31:55;11.30;;;5.20;;
56267;SDS011;42175;46.930;9.532;2022-10-22T01:34:24;11.30;;;5.13;;
56267;SDS011;42175;46.930;9.532;2022-10-22T01:36:52;6.00;;;4.68;;
56267;SDS011;42175;46.930;9.532;2022-10-22T01:39:20;8.77;;;4.28;;
56267;SDS011;42175;46.930;9.532;2022-10-22T01:41:48;7.43;;;4.38;;
56267;SDS011;42175;46.930;9.532;2022-10-22T01:46:59;8.40;;;4.88;;
56267;SDS011;42175;46.930;9.532;2022-10-22T01:49:35;10.35;;;4.22;;
56267;SDS011;42175;46.930;9.532;2022-10-22T01:52:28;7.60;;;4.45;;
56267;SDS011;42175;46.930;9.532;2022-10-22T01:55:18;8.52;;;5.00;;
56267;SDS011;42175;46.930;9.532;2022-10-22T01:58:00;10.50;;;4.80;;
56267;SDS011;42175;46.930;9.532;2022-10-22T02:00:49;7.10;;;4.30;;
56267;SDS011;42175;46.930;9.532;2022-10-22T02:03:29;9.05;;;4.13;;
56267;SDS011;42175;46.930;9.532;2022-10-22T02:06:05;5.93;;;3.33;;
56267;SDS011;42175;46.930;9.532;2022-10-22T02:08:36;8.25;;;4.15;;
56267;SDS011;42175;46.930;9.532;2022-10-22T02:11:03;6.53;;;3.75;;
56267;SDS011;42175;46.930;9.532;2022-10-22T02:13:31;6.25;;;3.60;;
56267;SDS011;42175;46.930;9.532;2022-10-22T02:16:02;9.13;;;3.78;;
56267;SDS011;42175;46.930;9.532;2022-10-22T02:18:31;10.18;;;4.60;;
56267;SDS011;42175;46.930;9.532;2022-10-22T02:20:59;8.98;;;3.63;;
56267;SDS011;42175;46.930;9.532;2022-10-22T02:23:26;10.50;;;4.05;;
56267;SDS011;42175;46.930;9.532;2022-10-22T02:25:54;8.77;;;3.85;;
56267;SDS011;42175;46.930;9.532;2022-10-22T02:28:27;7.03;;;3.83;;
56267;SDS011;42175;46.930;9.532;2022-10-22T02:31:04;7.78;;;3.75;;
56267;SDS011;42175;46.930;9.532;2022-10-22T02:33:44;5.45;;;3.60;;
56267;SDS011;42175;46.930;9.532;2022-10-22T02:36:16;6.28;;;3.15;;
56267;SDS011;42175;46.930;9.532;2022-10-22T02:38:42;7.18;;;3.47;;
56267;SDS011;42175;46.930;9.532;2022-10-22T02:41:10;6.10;;;2.90;;
56267;SDS011;42175;46.930;9.532;2022-10-22T02:43:43;9.98;;;3.13;;
56267;SDS011;42175;46.930;9.532;2022-10-22T02:46:13;8.77;;;3.20;;
56267;SDS011;42175;46.930;9.532;2022-10-22T02:48:39;7.30;;;3.13;;
56267;SDS011;42175;46.930;9.532;2022-10-22T02:51:05;7.85;;;3.17;;
56267;SDS011;42175;46.930;9.532;2022-10-22T02:53:31;7.68;;;3.15;;
56267;SDS011;42175;46.930;9.532;2022-10-22T02:55:57;10.85;;;3.22;;
56267;SDS011;42175;46.930;9.532;2022-10-22T02:58:23;6.95;;;2.72;;
56267;SDS011;42175;46.930;9.532;2022-10-22T03:00:49;6.88;;;2.92;;
56267;SDS011;42175;46.930;9.532;2022-10-22T03:03:15;5.93;;;3.20;;
56267;SDS011;42175;46.930;9.532;2022-10-22T03:05:40;7.10;;;3.25;;
56267;SDS011;42175;46.930;9.532;2022-10-22T03:08:06;5.60;;;3.22;;
56267;SDS011;42175;46.930;9.532;2022-10-22T03:10:32;7.68;;;3.03;;
56267;SDS011;42175;46.930;9.532;2022-10-22T03:12:58;7.07;;;2.65;;
56267;SDS011;42175;46.930;9.532;2022-10-22T03:15:23;10.93;;;2.70;;
56267;SDS011;42175;46.930;9.532;2022-10-22T03:17:49;5.03;;;2.63;;
56267;SDS011;42175;46.930;9.532;2022-10-22T03:20:15;11.30;;;3.35;;
56267;SDS011;42175;46.930;9.532;2022-10-22T03:22:41;9.38;;;2.72;;
56267;SDS011;42175;46.930;9.532;2022-10-22T03:25:09;10.27;;;2.53;;
56267;SDS011;42175;46.930;9.532;2022-10-22T03:27:38;5.00;;;2.50;;
56267;SDS011;42175;46.930;9.532;2022-10-22T03:30:05;7.03;;;2.65;;
56267;SDS011;42175;46.930;9.532;2022-10-22T03:32:32;4.35;;;2.38;;
56267;SDS011;42175;46.930;9.532;2022-10-22T03:34:58;6.10;;;2.50;;
56267;SDS011;42175;46.930;9.532;2022-10-22T03:37:24;7.75;;;2.00;;
56267;SDS011;42175;46.930;9.532;2022-10-22T03:39:50;4.15;;;2.38;;
56267;SDS011;42175;46.930;9.532;2022-10-22T03:42:17;8.82;;;2.60;;
56267;SDS011;42175;46.930;9.532;2022-10-22T03:44:43;5.32;;;2.20;;
56267;SDS011;42175;46.930;9.532;2022-10-22T03:47:09;5.38;;;2.72;;
56267;SDS011;42175;46.930;9.532;2022-10-22T03:49:35;4.80;;;2.30;;
56267;SDS011;42175;46.930;9.532;2022-10-22T03:52:04;6.53;;;2.78;;
56267;SDS011;42175;46.930;9.532;2022-10-22T03:54:34;3.55;;;2.05;;
56267;SDS011;42175;46.930;9.532;2022-10-22T03:57:01;6.47;;;1.83;;
56267;SDS011;42175;46.930;9.532;2022-10-22T03:59:32;5.05;;;2.05;;
56267;SDS011;42175;46.930;9.532;2022-10-22T04:02:02;7.45;;;2.50;;
56267;SDS011;42175;46.930;9.532;2022-10-22T04:04:28;8.48;;;2.63;;
56267;SDS011;42175;46.930;9.532;2022-10-22T04:06:54;4.15;;;2.63;;
56267;SDS011;42175;46.930;9.532;2022-10-22T04:09:20;3.88;;;1.90;;
56267;SDS011;42175;46.930;9.532;2022-10-22T04:11:45;3.13;;;1.88;;
56267;SDS011;42175;46.930;9.532;2022-10-22T04:14:11;7.55;;;2.65;;
56267;SDS011;42175;46.930;9.532;2022-10-22T04:16:40;7.88;;;2.33;;
56267;SDS011;42175;46.930;9.532;2022-10-22T04:19:06;8.60;;;2.47;;
56267;SDS011;42175;46.930;9.532;2022-10-22T04:21:32;5.13;;;1.85;;
56267;SDS011;42175;46.930;9.532;2022-10-22T04:23:59;5.60;;;1.98;;
56267;SDS011;42175;46.930;9.532;2022-10-22T04:26:25;7.10;;;1.90;;
56267;SDS011;42175;46.930;9.532;2022-10-22T04:28:51;4.85;;;1.80;;
56267;SDS011;42175;46.930;9.532;2022-10-22T04:31:19;3.67;;;1.95;;
56267;SDS011;42175;46.930;9.532;2022-10-22T04:33:46;5.57;;;2.15;;
56267;SDS011;42175;46.930;9.532;2022-10-22T04:36:16;3.45;;;1.77;;
56267;SDS011;42175;46.930;9.532;2022-10-22T04:38:43;3.92;;;1.80;;
56267;SDS011;42175;46.930;9.532;2022-10-22T04:41:14;7.53;;;1.80;;
56267;SDS011;42175;46.930;9.532;2022-10-22T04:43:41;5.10;;;1.67;;
56267;SDS011;42175;46.930;9.532;2022-10-22T04:46:08;6.70;;;1.90;;
56267;SDS011;42175;46.930;9.532;2022-10-22T04:48:35;3.47;;;2.33;;
56267;SDS011;42175;46.930;9.532;2022-10-22T04:51:03;7.82;;;1.80;;
56267;SDS011;42175;46.930;9.532;2022-10-22T04:53:30;4.28;;;1.35;;
56267;SDS011;42175;46.930;9.532;2022-10-22T04:58:40;2.53;;;1.47;;
56267;SDS011;42175;46.930;9.532;2022-10-22T05:01:27;2.45;;;1.40;;
56267;SDS011;42175;46.930;9.532;2022-10-22T05:03:55;4.80;;;1.80;;
56267;SDS011;42175;46.930;9.532;2022-10-22T05:06:24;2.47;;;1.40;;
56267;SDS011;42175;46.930;9.532;2022-10-22T05:08:52;5.82;;;2.25;;
56267;SDS011;42175;46.930;9.532;2022-10-22T05:11:20;2.60;;;1.45;;
56267;SDS011;42175;46.930;9.532;2022-10-22T05:13:48;3.55;;;1.88;;
56267;SDS011;42175;46.930;9.532;2022-10-22T05:16:15;4.50;;;1.73;;
56267;SDS011;42175;46.930;9.532;2022-10-22T05:18:42;7.22;;;1.80;;
56267;SDS011;42175;46.930;9.532;2022-10-22T05:21:13;5.72;;;1.85;;
56267;SDS011;42175;46.930;9.532;2022-10-22T05:23:40;5.18;;;1.80;;
56267;SDS011;42175;46.930;9.532;2022-10-22T05:26:08;5.78;;;1.80;;
56267;SDS011;42175;46.930;9.532;2022-10-22T05:28:35;4.38;;;1.83;;
56267;SDS011;42175;46.930;9.532;2022-10-22T05:31:01;6.38;;;1.70;;
56267;SDS011;42175;46.930;9.532;2022-10-22T05:33:31;2.85;;;1.45;;
56267;SDS011;42175;46.930;9.532;2022-10-22T05:35:58;5.45;;;1.92;;
56267;SDS011;42175;46.930;9.532;2022-10-22T05:38:25;4.25;;;1.42;;
56267;SDS011;42175;46.930;9.532;2022-10-22T05:41:01;11.20;;;2.03;;
56267;SDS011;42175;46.930;9.532;2022-10-22T05:43:27;5.85;;;1.40;;
56267;SDS011;42175;46.930;9.532;2022-10-22T05:45:55;9.23;;;2.08;;
56267;SDS011;42175;46.930;9.532;2022-10-22T05:48:25;3.97;;;1.63;;
56267;SDS011;42175;46.930;9.532;2022-10-22T05:50:50;12.65;;;2.30;;
56267;SDS011;42175;46.930;9.532;2022-10-22T05:53:17;6.68;;;2.40;;
56267;SDS011;42175;46.930;9.532;2022-10-22T05:55:43;7.10;;;1.90;;
56267;SDS011;42175;46.930;9.532;2022-10-22T05:58:09;5.75;;;1.85;;
56267;SDS011;42175;46.930;9.532;2022-10-22T06:00:37;7.07;;;2.08;;
56267;SDS011;42175;46.930;9.532;2022-10-22T06:03:03;6.57;;;2.10;;
56267;SDS011;42175;46.930;9.532;2022-10-22T06:05:29;3.63;;;1.80;;
56267;SDS011;42175;46.930;9.532;2022-10-22T06:07:55;6.15;;;1.88;;
56267;SDS011;42175;46.930;9.532;2022-10-22T06:10:22;8.80;;;2.03;;
56267;SDS011;42175;46.930;9.532;2022-10-22T06:12:48;5.35;;;2.08;;
56267;SDS011;42175;46.930;9.532;2022-10-22T06:15:15;3.35;;;1.70;;
56267;SDS011;42175;46.930;9.532;2022-10-22T06:17:43;7.30;;;1.98;;
56267;SDS011;42175;46.930;9.532;2022-10-22T06:20:10;4.97;;;2.58;;
56267;SDS011;42175;46.930;9.532;2022-10-22T06:22:36;5.10;;;2.08;;
56267;SDS011;42175;46.930;9.532;2022-10-22T06:25:03;5.95;;;2.22;;
56267;SDS011;42175;46.930;9.532;2022-10-22T06:27:29;6.43;;;1.88;;
56267;SDS011;42175;46.930;9.532;2022-10-22T06:29:54;8.23;;;2.33;;
56267;SDS011;42175;46.930;9.532;2022-10-22T06:32:20;5.30;;;1.65;;
56267;SDS011;42175;46.930;9.532;2022-10-22T06:34:46;3.90;;;2.10;;
56267;SDS011;42175;46.930;9.532;2022-10-22T06:37:12;4.05;;;1.95;;
56267;SDS011;42175;46.930;9.532;2022-10-22T06:39:39;8.45;;;2.33;;
56267;SDS011;42175;46.930;9.532;2022-10-22T06:42:05;9.45;;;2.42;;
56267;SDS011;42175;46.930;9.532;2022-10-22T06:44:31;5.90;;;2.38;;
56267;SDS011;42175;46.930;9.532;2022-10-22T06:46:56;13.32;;;2.53;;
56267;SDS011;42175;46.930;9.532;2022-10-22T06:49:22;7.47;;;3.13;;
56267;SDS011;42175;46.930;9.532;2022-10-22T06:51:48;6.00;;;3.47;;
56267;SDS011;42175;46.930;9.532;2022-10-22T06:54:15;7.35;;;2.72;;
56267;SDS011;42175;46.930;9.532;2022-10-22T06:56:41;6.75;;;2.85;;
56267;SDS011;42175;46.930;9.532;2022-10-22T06:59:06;8.18;;;2.33;;
56267;SDS011;42175;46.930;9.532;2022-10-22T07:01:33;5.20;;;2.50;;
56267;SDS011;42175;46.930;9.532;2022-10-22T07:04:00;4.88;;;2.40;;
56267;SDS011;42175;46.930;9.532;2022-10-22T07:06:27;3.97;;;2.05;;
56267;SDS011;42175;46.930;9.532;2022-10-22T07:08:54;8.57;;;2.30;;
56267;SDS011;42175;46.930;9.532;2022-10-22T07:11:22;4.68;;;2.10;;
56267;SDS011;42175;46.930;9.532;2022-10-22T07:13:53;7.88;;;2.58;;
56267;SDS011;42175;46.930;9.532;2022-10-22T07:16:19;7.18;;;2.55;;
56267;SDS011;42175;46.930;9.532;2022-10-22T07:18:46;4.80;;;2.30;;
56267;SDS011;42175;46.930;9.532;2022-10-22T07:21:13;5.13;;;2.30;;
56267;SDS011;42175;46.930;9.532;2022-10-22T07:23:41;4.10;;;2.00;;
56267;SDS011;42175;46.930;9.532;2022-10-22T07:26:07;7.85;;;3.10;;
56267;SDS011;42175;46.930;9.532;2022-10-22T07:28:35;7.47;;;2.25;;
56267;SDS011;42175;46.930;9.532;2022-10-22T07:31:03;6.90;;;2.17;;
56267;SDS011;42175;46.930;9.532;2022-10-22T07:33:29;7.13;;;2.80;;
56267;SDS011;42175;46.930;9.532;2022-10-22T07:35:56;13.02;;;2.40;;
56267;SDS011;42175;46.930;9.532;2022-10-22T07:38:24;4.95;;;1.90;;
56267;SDS011;42175;46.930;9.532;2022-10-22T07:40:50;7.82;;;1.80;;
56267;SDS011;42175;46.930;9.532;2022-10-22T07:43:16;4.38;;;2.00;;
56267;SDS011;42175;46.930;9.532;2022-10-22T07:45:42;5.97;;;1.80;;
56267;SDS011;42175;46.930;9.532;2022-10-22T07:48:07;3.85;;;2.38;;
56267;SDS011;42175;46.930;9.532;2022-10-22T07:50:33;6.13;;;1.85;;
56267;SDS011;42175;46.930;9.532;2022-10-22T07:52:59;4.63;;;2.13;;
56267;SDS011;42175;46.930;9.532;2022-10-22T07:55:24;5.28;;;1.90;;
56267;SDS011;42175;46.930;9.532;2022-10-22T07:57:50;3.53;;;1.88;;
56267;SDS011;42175;46.930;9.532;2022-10-22T08:00:16;6.30;;;2.15;;
56267;SDS011;42175;46.930;9.532;2022-10-22T08:02:42;7.53;;;1.83;;
56267;SDS011;42175;46.930;9.532;2022-10-22T08:05:08;3.85;;;1.90;;
56267;SDS011;42175;46.930;9.532;2022-10-22T08:07:34;4.80;;;2.05;;
56267;SDS011;42175;46.930;9.532;2022-10-22T08:10:00;5.15;;;2.15;;
56267;SDS011;42175;46.930;9.532;2022-10-22T08:12:25;7.53;;;2.35;;
56267;SDS011;42175;46.930;9.532;2022-10-22T08:14:51;4.45;;;1.95;;
56267;SDS011;42175;46.930;9.532;2022-10-22T08:17:17;4.00;;;1.75;;
56267;SDS011;42175;46.930;9.532;2022-10-22T08:19:42;7.13;;;2.20;;
56267;SDS011;42175;46.930;9.532;2022-10-22T08:22:08;4.60;;;2.00;;
56267;SDS011;42175;46.930;9.532;2022-10-22T08:24:34;3.80;;;1.52;;
56267;SDS011;42175;46.930;9.532;2022-10-22T08:27:00;3.35;;;1.73;;
56267;SDS011;42175;46.930;9.532;2022-10-22T08:29:25;6.00;;;2.10;;
56267;SDS011;42175;46.930;9.532;2022-10-22T08:31:51;7.00;;;1.60;;
56267;SDS011;42175;46.930;9.532;2022-10-22T08:34:18;5.20;;;2.10;;
56267;SDS011;42175;46.930;9.532;2022-10-22T08:36:44;3.50;;;1.70;;
56267;SDS011;42175;46.930;9.532;2022-10-22T08:39:09;4.90;;;1.52;;
56267;SDS011;42175;46.930;9.532;2022-10-22T08:41:41;3.15;;;1.45;;
56267;SDS011;42175;46.930;9.532;2022-10-22T08:50:43;4.53;;;1.40;;
56267;SDS011;42175;46.930;9.532;2022-10-22T08:53:13;6.53;;;2.35;;
56267;SDS011;42175;46.930;9.532;2022-10-22T08:55:41;4.82;;;2.00;;
56267;SDS011;42175;46.930;9.532;2022-10-22T09:00:35;3.33;;;1.77;;
56267;SDS011;42175;46.930;9.532;2022-10-22T09:08:10;4.25;;;1.77;;
56267;SDS011;42175;46.930;9.532;2022-10-22T09:10:38;6.20;;;2.28;;
56267;SDS011;42175;46.930;9.532;2022-10-22T09:13:10;6.10;;;1.90;;
56267;SDS011;42175;46.930;9.532;2022-10-22T09:15:40;5.40;;;1.80;;
56267;SDS011;42175;46.930;9.532;2022-10-22T09:18:24;4.75;;;2.25;;
56267;SDS011;42175;46.930;9.532;2022-10-22T09:21:33;7.30;;;2.00;;
56267;SDS011;42175;46.930;9.532;2022-10-22T09:27:01;11.10;;;1.80;;
56267;SDS011;42175;46.930;9.532;2022-10-22T09:29:34;3.03;;;1.52;;
56267;SDS011;42175;46.930;9.532;2022-10-22T09:32:01;6.10;;;1.80;;
56267;SDS011;42175;46.930;9.532;2022-10-22T09:34:27;7.65;;;2.38;;
56267;SDS011;42175;46.930;9.532;2022-10-22T09:36:57;5.47;;;2.05;;
56267;SDS011;42175;46.930;9.532;2022-10-22T09:39:25;7.30;;;2.00;;
56267;SDS011;42175;46.930;9.532;2022-10-22T09:41:53;8.82;;;2.22;;
56267;SDS011;42175;46.930;9.532;2022-10-22T09:44:19;7.75;;;2.22;;
56267;SDS011;42175;46.930;9.532;2022-10-22T09:46:45;7.50;;;2.55;;
56267;SDS011;42175;46.930;9.532;2022-10-22T09:49:14;6.22;;;2.58;;
56267;SDS011;42175;46.930;9.532;2022-10-22T09:56:57;5.90;;;1.70;;
56267;SDS011;42175;46.930;9.532;2022-10-22T09:59:32;4.53;;;1.80;;
56267;SDS011;42175;46.930;9.532;2022-10-22T10:02:05;4.38;;;1.77;;
56267;SDS011;42175;46.930;9.532;2022-10-22T10:04:41;6.10;;;2.40;;
56267;SDS011;42175;46.930;9.532;2022-10-22T10:07:16;5.28;;;1.80;;
56267;SDS011;42175;46.930;9.532;2022-10-22T10:09:54;4.75;;;1.40;;
56267;SDS011;42175;46.930;9.532;2022-10-22T10:17:59;3.97;;;1.60;;
56267;SDS011;42175;46.930;9.532;2022-10-22T10:20:38;4.53;;;2.20;;
56267;SDS011;42175;46.930;9.532;2022-10-22T10:50:00;5.53;;;1.95;;
56267;SDS011;42175;46.930;9.532;2022-10-22T10:52:45;4.10;;;1.70;;
56267;SDS011;42175;46.930;9.532;2022-10-22T10:55:24;5.28;;;1.65;;
56267;SDS011;42175;46.930;9.532;2022-10-22T10:58:05;3.97;;;1.70;;
56267;SDS011;42175;46.930;9.532;2022-10-22T11:00:49;3.85;;;1.60;;
56267;SDS011;42175;46.930;9.532;2022-10-22T11:03:46;5.22;;;1.65;;
56267;SDS011;42175;46.930;9.532;2022-10-22T11:06:37;5.25;;;1.10;;
56267;SDS011;42175;46.930;9.532;2022-10-22T11:09:06;2.05;;;0.93;;
56267;SDS011;42175;46.930;9.532;2022-10-22T11:11:46;2.97;;;0.88;;
56267;SDS011;42175;46.930;9.532;2022-10-22T11:17:03;2.05;;;0.90;;
56267;SDS011;42175;46.930;9.532;2022-10-22T11:19:37;4.10;;;1.00;;
56267;SDS011;42175;46.930;9.532;2022-10-22T11:22:25;2.03;;;0.70;;
56267;SDS011;42175;46.930;9.532;2022-10-22T11:27:48;4.30;;;0.77;;
56267;SDS011;42175;46.930;9.532;2022-10-22T11:30:21;4.20;;;1.00;;
56267;SDS011;42175;46.930;9.532;2022-10-22T11:32:53;5.32;;;0.77;;
56267;SDS011;42175;46.930;9.532;2022-10-22T11:35:29;4.70;;;1.15;;
56267;SDS011;42175;46.930;9.532;2022-10-22T11:37:58;2.85;;;1.33;;
56267;SDS011;42175;46.930;9.532;2022-10-22T11:43:31;2.13;;;0.70;;
56267;SDS011;42175;46.930;9.532;2022-10-22T11:46:02;3.45;;;0.70;;
56267;SDS011;42175;46.930;9.532;2022-10-22T11:48:40;3.08;;;0.93;;
56267;SDS011;42175;46.930;9.532;2022-10-22T11:51:28;3.35;;;1.00;;
56267;SDS011;42175;46.930;9.532;2022-10-22T11:54:00;3.78;;;1.60;;
56267;SDS011;42175;46.930;9.532;2022-10-22T11:56:45;3.08;;;1.05;;
56267;SDS011;42175;46.930;9.532;2022-10-22T11:59:29;3.40;;;1.42;;
56267;SDS011;42175;46.930;9.532;2022-10-22T12:04:53;4.70;;;0.77;;
56267;SDS011;42175;46.930;9.532;2022-10-22T12:10:18;3.38;;;0.90;;
56267;SDS011;42175;46.930;9.532;2022-10-22T12:12:51;2.22;;;0.85;;
56267;SDS011;42175;46.930;9.532;2022-10-22T12:15:27;2.60;;;0.68;;
56267;SDS011;42175;46.930;9.532;2022-10-22T12:18:00;5.22;;;0.80;;
56267;SDS011;42175;46.930;9.532;2022-10-22T12:20:29;2.97;;;1.00;;
56267;SDS011;42175;46.930;9.532;2022-10-22T12:22:56;3.45;;;0.90;;
56267;SDS011;42175;46.930;9.532;2022-10-22T12:25:25;1.45;;;0.65;;
56267;SDS011;42175;46.930;9.532;2022-10-22T12:27:56;5.07;;;1.23;;
56267;SDS011;42175;46.930;9.532;2022-10-22T12:30:27;8.70;;;0.85;;
56267;SDS011;42175;46.930;9.532;2022-10-22T12:32:58;6.47;;;0.95;;
56267;SDS011;42175;46.930;9.532;2022-10-22T12:35:30;3.55;;;0.80;;
56267;SDS011;42175;46.930;9.532;2022-10-22T12:38:00;5.40;;;0.98;;
56267;SDS011;42175;46.930;9.532;2022-10-22T12:40:30;10.73;;;1.13;;
56267;SDS011;42175;46.930;9.532;2022-10-22T12:42:59;3.42;;;0.85;;
56267;SDS011;42175;46.930;9.532;2022-10-22T12:45:30;5.18;;;1.20;;
56267;SDS011;42175;46.930;9.532;2022-10-22T12:47:58;3.70;;;1.40;;
56267;SDS011;42175;46.930;9.532;2022-10-22T12:50:34;5.70;;;1.35;;
56267;SDS011;42175;46.930;9.532;2022-10-22T12:53:05;3.50;;;0.98;;
56267;SDS011;42175;46.930;9.532;2022-10-22T12:55:40;2.40;;;1.00;;
56267;SDS011;42175;46.930;9.532;2022-10-22T12:58:06;3.30;;;1.20;;
56267;SDS011;42175;46.930;9.532;2022-10-22T13:00:37;6.68;;;1.02;;
56267;SDS011;42175;46.930;9.532;2022-10-22T13:03:05;3.75;;;0.88;;
56267;SDS011;42175;46.930;9.532;2022-10-22T13:05:32;7.82;;;0.82;;
56267;SDS011;42175;46.930;9.532;2022-10-22T13:08:10;2.70;;;0.65;;
56267;SDS011;42175;46.930;9.532;2022-10-22T13:10:47;7.95;;;1.00;;
56267;SDS011;42175;46.930;9.532;2022-10-22T13:13:39;4.03;;;0.70;;
56267;SDS011;42175;46.930;9.532;2022-10-22T13:18:49;7.57;;;1.00;;
56267;SDS011;42175;46.930;9.532;2022-10-22T13:21:58;3.65;;;0.80;;
56267;SDS011;42175;46.930;9.532;2022-10-22T13:24:21;7.30;;;0.93;;
56267;SDS011;42175;46.930;9.532;2022-10-22T13:26:49;11.18;;;1.23;;
56267;SDS011;42175;46.930;9.532;2022-10-22T13:29:18;11.98;;;1.30;;
56267;SDS011;42175;46.930;9.532;2022-10-22T13:31:46;9.02;;;1.20;;
56267;SDS011;42175;46.930;9.532;2022-10-22T13:34:18;5.75;;;1.50;;
56267;SDS011;42175;46.930;9.532;2022-10-22T13:36:45;8.88;;;1.00;;
56267;SDS011;42175;46.930;9.532;2022-10-22T13:39:15;4.28;;;1.33;;
56267;SDS011;42175;46.930;9.532;2022-10-22T13:41:42;8.88;;;1.88;;
56267;SDS011;42175;46.930;9.532;2022-10-22T13:44:08;6.50;;;1.38;;
56267;SDS011;42175;46.930;9.532;2022-10-22T13:46:34;10.77;;;1.20;;
56267;SDS011;42175;46.930;9.532;2022-10-22T13:49:06;6.78;;;0.90;;
56267;SDS011;42175;46.930;9.532;2022-10-22T13:51:41;10.13;;;1.25;;
56267;SDS011;42175;46.930;9.532;2022-10-22T13:54:09;7.45;;;1.00;;
56267;SDS011;42175;46.930;9.532;2022-10-22T13:56:43;8.73;;;1.00;;
56267;SDS011;42175;46.930;9.532;2022-10-22T13:59:09;8.73;;;1.17;;
56267;SDS011;42175;46.930;9.532;2022-10-22T14:01:35;3.95;;;0.82;;
56267;SDS011;42175;46.930;9.532;2022-10-22T14:04:02;3.85;;;0.88;;
56267;SDS011;42175;46.930;9.532;2022-10-22T14:06:31;9.43;;;0.98;;
56267;SDS011;42175;46.930;9.532;2022-10-22T14:08:59;3.05;;;1.42;;
56267;SDS011;42175;46.930;9.532;2022-10-22T14:11:28;7.05;;;0.82;;
56267;SDS011;42175;46.930;9.532;2022-10-22T14:13:57;4.15;;;0.88;;
56267;SDS011;42175;46.930;9.532;2022-10-22T14:16:24;2.60;;;0.80;;
56267;SDS011;42175;46.930;9.532;2022-10-22T14:18:51;1.98;;;0.98;;
56267;SDS011;42175;46.930;9.532;2022-10-22T14:21:19;8.32;;;1.05;;
56267;SDS011;42175;46.930;9.532;2022-10-22T14:23:45;4.50;;;0.90;;
56267;SDS011;42175;46.930;9.532;2022-10-22T14:26:22;6.45;;;1.00;;
56267;SDS011;42175;46.930;9.532;2022-10-22T14:28:48;7.45;;;0.90;;
56267;SDS011;42175;46.930;9.532;2022-10-22T14:31:14;5.45;;;0.80;;
56267;SDS011;42175;46.930;9.532;2022-10-22T14:33:41;1.67;;;0.75;;
56267;SDS011;42175;46.930;9.532;2022-10-22T14:36:08;4.78;;;0.90;;
56267;SDS011;42175;46.930;9.532;2022-10-22T14:38:37;3.17;;;0.73;;
56267;SDS011;42175;46.930;9.532;2022-10-22T14:41:04;2.33;;;0.80;;
56267;SDS011;42175;46.930;9.532;2022-10-22T14:43:40;2.70;;;1.00;;
56267;SDS011;42175;46.930;9.532;2022-10-22T14:46:07;0.90;;;0.70;;
56267;SDS011;42175;46.930;9.532;2022-10-22T14:48:35;4.82;;;0.98;;
56267;SDS011;42175;46.930;9.532;2022-10-22T14:51:00;5.50;;;0.77;;
56267;SDS011;42175;46.930;9.532;2022-10-22T14:53:26;4.55;;;0.98;;
56267;SDS011;42175;46.930;9.532;2022-10-22T14:55:52;5.20;;;1.35;;
56267;SDS011;42175;46.930;9.532;2022-10-22T14:58:21;2.95;;;0.70;;
56267;SDS011;42175;46.930;9.532;2022-10-22T15:00:47;5.13;;;0.88;;
56267;SDS011;42175;46.930;9.532;2022-10-22T15:03:13;3.72;;;0.93;;
56267;SDS011;42175;46.930;9.532;2022-10-22T15:05:39;4.50;;;0.70;;
56267;SDS011;42175;46.930;9.532;2022-10-22T15:08:09;3.53;;;0.60;;
56267;SDS011;42175;46.930;9.532;2022-10-22T15:10:36;3.78;;;0.60;;
56267;SDS011;42175;46.930;9.532;2022-10-22T15:13:02;3.10;;;0.70;;
56267;SDS011;42175;46.930;9.532;2022-10-22T15:15:28;4.30;;;0.60;;
56267;SDS011;42175;46.930;9.532;2022-10-22T15:17:53;3.55;;;0.70;;
56267;SDS011;42175;46.930;9.532;2022-10-22T15:20:19;2.60;;;0.70;;
56267;SDS011;42175;46.930;9.532;2022-10-22T15:22:45;3.50;;;0.95;;
56267;SDS011;42175;46.930;9.532;2022-10-22T15:25:10;1.55;;;0.70;;
56267;SDS011;42175;46.930;9.532;2022-10-22T15:27:37;4.35;;;0.75;;
56267;SDS011;42175;46.930;9.532;2022-10-22T15:30:04;3.08;;;0.50;;
56267;SDS011;42175;46.930;9.532;2022-10-22T15:32:31;2.42;;;0.60;;
56267;SDS011;42175;46.930;9.532;2022-10-22T15:34:58;2.95;;;0.68;;
56267;SDS011;42175;46.930;9.532;2022-10-22T15:37:25;6.35;;;0.70;;
56267;SDS011;42175;46.930;9.532;2022-10-22T15:39:51;8.52;;;0.77;;
56267;SDS011;42175;46.930;9.532;2022-10-22T15:42:17;8.75;;;0.77;;
56267;SDS011;42175;46.930;9.532;2022-10-22T15:44:43;7.18;;;0.70;;
56267;SDS011;42175;46.930;9.532;2022-10-22T15:47:11;6.63;;;0.70;;
56267;SDS011;42175;46.930;9.532;2022-10-22T15:49:37;3.00;;;0.47;;
56267;SDS011;42175;46.930;9.532;2022-10-22T15:52:04;4.10;;;0.80;;
56267;SDS011;42175;46.930;9.532;2022-10-22T15:54:30;2.55;;;0.40;;
56267;SDS011;42175;46.930;9.532;2022-10-22T15:56:57;3.28;;;0.65;;
56267;SDS011;42175;46.930;9.532;2022-10-22T15:59:25;3.72;;;0.68;;
56267;SDS011;42175;46.930;9.532;2022-10-22T16:01:51;6.60;;;0.73;;
56267;SDS011;42175;46.930;9.532;2022-10-22T16:04:17;6.13;;;0.70;;
56267;SDS011;42175;46.930;9.532;2022-10-22T16:06:44;3.08;;;0.80;;
56267;SDS011;42175;46.930;9.532;2022-10-22T16:09:13;4.50;;;0.60;;
56267;SDS011;42175;46.930;9.532;2022-10-22T16:11:41;3.80;;;1.02;;
56267;SDS011;42175;46.930;9.532;2022-10-22T16:14:07;6.13;;;0.82;;
56267;SDS011;42175;46.930;9.532;2022-10-22T16:16:36;4.00;;;0.70;;
56267;SDS011;42175;46.930;9.532;2022-10-22T16:19:06;8.70;;;0.55;;
56267;SDS011;42175;46.930;9.532;2022-10-22T16:21:34;4.97;;;0.60;;
56267;SDS011;42175;46.930;9.532;2022-10-22T16:24:00;6.28;;;0.70;;
56267;SDS011;42175;46.930;9.532;2022-10-22T16:26:25;3.55;;;0.90;;
56267;SDS011;42175;46.930;9.532;2022-10-22T16:28:52;4.22;;;0.60;;
56267;SDS011;42175;46.930;9.532;2022-10-22T16:31:17;2.90;;;1.65;;
56267;SDS011;42175;46.930;9.532;2022-10-22T16:33:46;4.38;;;0.85;;